TimeCST,TemperatureF,Dew PointF,Humidity,Sea Level PressureIn,VisibilityMPH,Wind Direction,Wind SpeedMPH,Gust SpeedMPH,PrecipitationIn,Events,Conditions,WindDirDegrees,DateUTC
12:53 AM,30.9,30.0,96,30.51,8.0,Variable,5.8,-,0.01,,Overcast,0,2013-11-23 06:53:00
1:53 AM,30.9,30.0,96,30.52,8.0,NNW,6.9,-,N/A,,Overcast,340,2013-11-23 07:53:00
2:53 AM,32.0,30.0,92,30.53,9.0,NNW,5.8,-,0.00,,Overcast,340,2013-11-23 08:53:00
3:53 AM,32.0,30.0,92,30.53,9.0,NNW,4.6,-,N/A,,Overcast,330,2013-11-23 09:53:00
4:53 AM,32.0,28.9,88,30.53,9.0,NNW,6.9,-,N/A,,Overcast,330,2013-11-23 10:53:00
5:53 AM,32.0,28.9,88,30.56,9.0,NNW,9.2,-,N/A,,Overcast,340,2013-11-23 11:53:00
6:53 AM,30.9,28.0,89,30.57,10.0,NNW,9.2,-,N/A,,Overcast,340,2013-11-23 12:53:00
7:16 AM,30.2,26.6,86,30.55,9.0,NNW,9.2,-,N/A,,Overcast,340,2013-11-23 13:16:00
7:50 AM,30.2,26.6,86,30.57,10.0,NNW,8.1,-,N/A,,Overcast,330,2013-11-23 13:50:00
7:53 AM,30.9,27.0,85,30.61,10.0,NNW,8.1,-,N/A,,Overcast,330,2013-11-23 13:53:00
8:53 AM,32.0,27.0,82,30.61,10.0,NNW,6.9,-,N/A,,Overcast,330,2013-11-23 14:53:00
9:53 AM,34.0,25.0,70,30.62,10.0,NNW,4.6,-,N/A,,Overcast,340,2013-11-23 15:53:00
10:53 AM,35.1,17.1,48,30.63,10.0,North,12.7,19.6,N/A,,Overcast,360,2013-11-23 16:53:00
11:53 AM,36.0,18.0,48,30.61,10.0,North,10.4,17.3,N/A,,Overcast,360,2013-11-23 17:53:00
12:53 PM,37.9,14.0,38,30.60,10.0,NW,10.4,-,N/A,,Mostly Cloudy,320,2013-11-23 18:53:00
1:53 PM,37.9,12.9,36,30.59,10.0,North,11.5,19.6,N/A,,Clear,360,2013-11-23 19:53:00
2:53 PM,37.9,17.1,43,30.58,10.0,NNW,9.2,-,N/A,,Clear,340,2013-11-23 20:53:00
3:53 PM,37.0,19.0,48,30.59,10.0,NNW,5.8,-,N/A,,Clear,340,2013-11-23 21:53:00
4:53 PM,35.1,19.9,54,30.59,10.0,NNW,6.9,-,N/A,,Clear,330,2013-11-23 22:53:00
5:53 PM,34.0,19.0,54,30.61,10.0,North,9.2,19.6,N/A,,Clear,350,2013-11-23 23:53:00
6:53 PM,30.0,15.1,54,30.64,10.0,North,10.4,18.4,N/A,,Clear,350,2013-11-24 00:53:00
7:53 PM,27.0,12.9,56,30.66,10.0,North,9.2,-,N/A,,Clear,360,2013-11-24 01:53:00
8:53 PM,26.1,12.9,58,30.67,10.0,North,5.8,-,N/A,,Clear,10,2013-11-24 02:53:00
9:53 PM,25.0,12.0,58,30.66,10.0,North,5.8,-,N/A,,Clear,350,2013-11-24 03:53:00
10:53 PM,24.1,10.9,57,30.66,10.0,North,9.2,17.3,N/A,,Clear,10,2013-11-24 04:53:00
11:53 PM,21.9,10.9,63,30.67,10.0,North,6.9,-,N/A,,Clear,10,2013-11-24 05:53:00